createdAt,value
2019-05-21T00:01:28.698Z,6.22
2019-05-21T00:03:59.167Z,12.23
2019-05-21T00:06:28.215Z,3.65
2019-05-21T00:09:11.625Z,8.58
2019-05-21T00:11:40.482Z,6.12
2019-05-21T00:14:09.189Z,4.75
2019-05-21T00:16:37.975Z,5.17
2019-05-21T00:19:11.046Z,4.45
2019-05-21T00:21:41.390Z,5.00
2019-05-21T00:24:10.165Z,9.13
2019-05-21T00:26:38.986Z,3.85
2019-05-21T00:29:44.099Z,12.15
2019-05-21T00:32:49.335Z,8.58
2019-05-21T00:35:54.599Z,7.00
2019-05-21T00:39:00.055Z,5.08
2019-05-21T00:42:09.006Z,5.40
2019-05-21T00:44:52.571Z,4.53
2019-05-21T00:47:21.283Z,5.70
2019-05-21T00:49:50.137Z,6.92
2019-05-21T00:52:18.823Z,5.45
2019-05-21T00:55:06.767Z,5.08
2019-05-21T00:57:35.561Z,4.90
2019-05-21T01:00:14.876Z,5.35
2019-05-21T01:02:43.733Z,6.10
2019-05-21T01:05:15.646Z,5.35
2019-05-21T01:07:50.360Z,7.17
2019-05-21T01:10:29.318Z,6.58
2019-05-21T01:13:01.406Z,7.70
2019-05-21T01:15:40.849Z,6.42
2019-05-21T01:18:05.189Z,6.03
2019-05-21T01:20:33.930Z,7.00
2019-05-21T01:23:04.219Z,9.48
2019-05-21T01:25:33.081Z,8.30
2019-05-21T01:28:01.982Z,7.05
2019-05-21T01:30:30.771Z,7.60
2019-05-21T01:32:59.417Z,7.47
2019-05-21T01:35:28.248Z,9.13
2019-05-21T01:37:57.051Z,8.70
2019-05-21T01:40:25.835Z,10.65
2019-05-21T01:42:54.577Z,11.08
2019-05-21T01:45:23.245Z,7.87
2019-05-21T01:47:51.987Z,8.05
2019-05-21T01:50:20.752Z,10.38
2019-05-21T01:52:49.473Z,9.73
2019-05-21T01:55:18.323Z,8.13
2019-05-21T01:57:46.990Z,11.60
2019-05-21T02:00:15.891Z,10.90
2019-05-21T02:02:44.776Z,10.10
2019-05-21T02:05:13.905Z,10.55
2019-05-21T02:07:42.715Z,10.00
2019-05-21T02:10:11.667Z,11.60
2019-05-21T02:12:40.494Z,10.38
2019-05-21T02:15:17.113Z,10.13
2019-05-21T02:17:45.856Z,10.85
2019-05-21T02:20:14.967Z,11.63
2019-05-21T02:22:43.739Z,10.18
2019-05-21T02:25:12.676Z,11.78
2019-05-21T02:27:41.577Z,9.40
2019-05-21T02:30:11.114Z,10.88
2019-05-21T02:32:39.861Z,14.25
2019-05-21T02:35:09.128Z,10.63
2019-05-21T02:37:37.876Z,8.98
2019-05-21T02:40:07.338Z,11.18
2019-05-21T02:42:36.266Z,11.78
2019-05-21T02:45:07.358Z,16.80
2019-05-21T02:50:40.345Z,13.78
2019-05-21T02:53:09.088Z,9.38
2019-05-21T02:55:38.304Z,11.57
2019-05-21T02:58:07.115Z,14.55
2019-05-21T03:00:38.880Z,13.32
2019-05-21T03:03:11.302Z,13.13
2019-05-21T03:05:42.738Z,12.23
2019-05-21T03:08:11.478Z,14.63
2019-05-21T03:10:40.413Z,16.57
2019-05-21T03:13:09.108Z,14.87
2019-05-21T03:15:37.921Z,16.75
2019-05-21T03:18:06.791Z,14.33
2019-05-21T03:20:35.602Z,11.63
2019-05-21T03:23:04.369Z,13.15
2019-05-21T03:25:33.623Z,14.85
2019-05-21T03:28:02.615Z,11.55
2019-05-21T03:30:31.448Z,11.35
2019-05-21T03:33:00.286Z,14.90
2019-05-21T03:35:29.015Z,17.95
2019-05-21T03:37:59.148Z,14.73
2019-05-21T03:40:27.833Z,18.62
2019-05-21T03:42:56.732Z,16.93
2019-05-21T03:45:25.663Z,10.08
2019-05-21T03:47:54.559Z,14.43
2019-05-21T03:50:23.316Z,14.73
2019-05-21T03:52:52.077Z,13.08
2019-05-21T03:55:20.867Z,13.30
2019-05-21T03:57:49.610Z,11.90
2019-05-21T04:00:18.837Z,12.85
2019-05-21T04:02:47.578Z,16.55
2019-05-21T04:05:26.572Z,13.55
2019-05-21T04:07:55.303Z,16.77
2019-05-21T04:10:24.369Z,14.40
2019-05-21T04:13:08.883Z,15.00
2019-05-21T04:15:44.115Z,13.00
2019-05-21T04:18:30.648Z,14.73
2019-05-21T04:21:00.952Z,21.68
2019-05-21T04:23:29.706Z,13.98
2019-05-21T04:25:58.787Z,15.95
2019-05-21T04:28:29.751Z,15.28
2019-05-21T04:30:58.467Z,14.45
2019-05-21T04:33:27.148Z,16.52
2019-05-21T04:35:55.890Z,15.75
2019-05-21T04:38:24.594Z,13.55
2019-05-21T04:40:53.375Z,14.15
2019-05-21T04:43:22.042Z,13.32
2019-05-21T04:45:51.756Z,12.58
2019-05-21T04:48:20.427Z,16.82
2019-05-21T04:50:49.244Z,11.30
2019-05-21T04:53:17.933Z,14.18
2019-05-21T04:55:46.696Z,12.20
2019-05-21T04:58:15.507Z,14.70
2019-05-21T05:00:44.278Z,9.23
2019-05-21T05:03:13.315Z,13.50
2019-05-21T05:05:42.168Z,9.55
2019-05-21T05:08:10.821Z,10.40
2019-05-21T05:10:39.582Z,11.57
2019-05-21T05:13:10.877Z,11.50
2019-05-21T05:15:39.711Z,24.37
2019-05-21T05:18:08.620Z,12.68
2019-05-21T05:20:39.846Z,19.02
2019-05-21T05:23:07.931Z,14.85
2019-05-21T05:25:36.665Z,13.72
2019-05-21T05:28:05.431Z,14.58
2019-05-21T05:30:34.182Z,19.40
2019-05-21T05:33:02.946Z,16.25
2019-05-21T05:35:31.608Z,19.35
2019-05-21T05:38:01.609Z,14.63
2019-05-21T05:40:30.435Z,17.07
2019-05-21T05:42:59.286Z,23.50
2019-05-21T05:45:28.106Z,13.75
2019-05-21T05:48:00.092Z,15.30
2019-05-21T05:50:33.436Z,22.60
2019-05-21T05:53:05.303Z,17.30
2019-05-21T05:55:34.106Z,12.40
2019-05-21T05:58:02.824Z,12.68
2019-05-21T06:00:31.774Z,11.10
2019-05-21T06:03:00.581Z,14.33
2019-05-21T06:05:29.631Z,16.12
2019-05-21T06:08:00.116Z,17.02
2019-05-21T06:10:31.834Z,24.27
2019-05-21T06:13:00.663Z,18.65
2019-05-21T06:15:29.603Z,21.42
2019-05-21T06:18:00.001Z,15.08
2019-05-21T06:20:28.812Z,17.75
2019-05-21T06:22:57.635Z,15.85
2019-05-21T06:25:26.697Z,18.32
2019-05-21T06:28:00.147Z,12.65
2019-05-21T06:30:27.601Z,20.30
2019-05-21T06:32:56.428Z,16.75
2019-05-21T06:35:34.299Z,17.07
2019-05-21T06:38:16.689Z,17.50
2019-05-21T06:40:38.193Z,19.55
2019-05-21T06:43:05.160Z,19.10
2019-05-21T06:45:35.689Z,21.07
2019-05-21T06:48:04.558Z,22.15
2019-05-21T06:50:37.100Z,17.70
2019-05-21T06:53:04.048Z,15.85
2019-05-21T06:55:40.104Z,13.28
2019-05-21T06:58:08.845Z,16.57
2019-05-21T07:00:37.862Z,19.95
2019-05-21T07:03:09.210Z,14.73
2019-05-21T07:05:38.000Z,15.65
2019-05-21T07:10:45.309Z,16.55
2019-05-21T07:12:24.850Z,16.55
2019-05-21T07:13:15.697Z,15.38
2019-05-21T07:15:49.022Z,16.85
2019-05-21T07:18:17.785Z,18.98
2019-05-21T07:20:48.235Z,16.95
2019-05-21T07:23:24.859Z,15.72
2019-05-21T07:26:01.074Z,16.00
2019-05-21T07:28:36.138Z,19.62
2019-05-21T07:31:05.542Z,17.87
2019-05-21T07:33:34.392Z,13.18
2019-05-21T07:36:09.508Z,14.65
2019-05-21T07:38:52.631Z,23.80
2019-05-21T07:41:14.375Z,15.23
2019-05-21T07:43:46.159Z,18.80
2019-05-21T07:46:15.251Z,13.72
2019-05-21T07:48:44.122Z,12.80
2019-05-21T07:51:12.877Z,18.02
2019-05-21T07:53:41.618Z,19.82
2019-05-21T07:56:10.456Z,19.52
2019-05-21T07:58:39.269Z,21.00
2019-05-21T08:01:08.253Z,21.60
2019-05-21T08:03:37.111Z,16.32
2019-05-21T08:06:06.156Z,16.25
2019-05-21T08:08:34.968Z,15.98
2019-05-21T08:11:05.452Z,20.05
2019-05-21T08:13:34.423Z,15.83
2019-05-21T08:16:03.267Z,14.68
2019-05-21T08:18:32.155Z,18.17
2019-05-21T08:21:04.277Z,16.97
2019-05-21T08:23:32.928Z,14.85
2019-05-21T08:26:03.312Z,16.90
2019-05-21T08:28:32.340Z,16.62
2019-05-21T08:31:02.361Z,16.40
2019-05-21T08:33:31.285Z,15.60
2019-05-21T08:36:02.982Z,16.32
2019-05-21T08:38:32.003Z,15.38
2019-05-21T08:41:02.791Z,14.70
2019-05-21T08:43:31.525Z,13.48
2019-05-21T08:46:01.644Z,14.85
2019-05-21T08:48:30.455Z,10.25
2019-05-21T08:50:59.279Z,18.45
2019-05-21T08:53:28.038Z,15.95
2019-05-21T08:55:56.845Z,15.58
2019-05-21T08:58:25.679Z,13.25
2019-05-21T09:00:54.585Z,17.98
2019-05-21T09:03:23.551Z,16.10
2019-05-21T09:05:52.306Z,13.70
2019-05-21T09:08:21.126Z,18.55
2019-05-21T09:10:51.859Z,9.28
2019-05-21T09:13:22.291Z,7.80
2019-05-21T09:15:51.060Z,9.48
2019-05-21T09:18:19.788Z,13.15
2019-05-21T09:20:48.663Z,14.38
2019-05-21T09:23:17.559Z,9.40
2019-05-21T09:25:49.403Z,6.55
2019-05-21T09:28:16.721Z,9.73
2019-05-21T09:30:45.570Z,10.58
2019-05-21T09:33:14.651Z,10.90
2019-05-21T09:35:43.456Z,8.35
2019-05-21T09:38:14.796Z,13.30
2019-05-21T09:40:43.562Z,13.08
2019-05-21T09:43:12.328Z,10.20
2019-05-21T09:45:41.093Z,10.23
2019-05-21T09:48:10.107Z,11.97
2019-05-21T09:50:38.841Z,9.38
2019-05-21T09:53:07.610Z,9.15
2019-05-21T09:55:36.339Z,13.98
2019-05-21T09:58:12.635Z,12.00
2019-05-21T10:00:59.267Z,12.35
2019-05-21T10:03:29.790Z,8.58
2019-05-21T10:05:58.524Z,8.75
2019-05-21T10:08:27.264Z,13.55
2019-05-21T10:10:56.052Z,9.48
2019-05-21T10:13:24.914Z,12.28
2019-05-21T10:15:53.685Z,11.10
2019-05-21T10:18:22.335Z,10.15
2019-05-21T10:20:51.135Z,11.85
2019-05-21T10:23:19.872Z,9.10
2019-05-21T10:25:48.670Z,12.80
2019-05-21T10:28:17.422Z,10.72
2019-05-21T10:30:49.185Z,9.75
2019-05-21T10:33:18.143Z,9.35
2019-05-21T10:35:47.229Z,8.98
2019-05-21T10:38:15.976Z,9.80
2019-05-21T10:40:44.878Z,9.05
2019-05-21T10:43:13.634Z,8.90
2019-05-21T10:45:42.438Z,9.85
2019-05-21T10:48:11.114Z,11.35
2019-05-21T10:50:40.032Z,10.08
2019-05-21T10:53:08.839Z,7.55
2019-05-21T10:55:37.590Z,10.93
2019-05-21T10:58:06.573Z,9.05
2019-05-21T11:00:35.432Z,9.45
2019-05-21T11:03:17.939Z,9.78
2019-05-21T11:05:48.441Z,7.55
2019-05-21T11:08:25.241Z,11.10
2019-05-21T11:10:47.624Z,7.85
2019-05-21T11:13:16.283Z,7.72
2019-05-21T11:15:45.102Z,7.53
2019-05-21T11:18:13.882Z,6.72
2019-05-21T11:20:43.612Z,6.37
2019-05-21T11:23:13.856Z,7.70
2019-05-21T11:25:42.641Z,6.15
2019-05-21T11:28:11.366Z,8.13
2019-05-21T11:30:40.093Z,4.92
2019-05-21T11:33:08.835Z,7.62
2019-05-21T11:35:37.551Z,12.95
2019-05-21T11:38:06.366Z,5.53
2019-05-21T11:40:35.162Z,6.05
2019-05-21T11:43:03.914Z,8.20
2019-05-21T11:45:33.097Z,9.28
2019-05-21T11:48:02.138Z,8.40
2019-05-21T11:50:30.977Z,8.13
2019-05-21T11:52:59.751Z,7.35
2019-05-21T11:55:29.631Z,6.35
2019-05-21T11:57:58.423Z,10.65
2019-05-21T12:00:28.920Z,8.50
2019-05-21T12:02:57.722Z,7.60
2019-05-21T12:05:26.522Z,7.70
2019-05-21T12:07:55.237Z,9.33
2019-05-21T12:10:23.916Z,7.53
2019-05-21T12:12:52.647Z,7.70
2019-05-21T12:15:21.608Z,7.08
2019-05-21T12:17:50.280Z,8.78
2019-05-21T12:20:35.269Z,7.53
2019-05-21T12:22:49.766Z,7.85
2019-05-21T12:25:18.484Z,7.80
2019-05-21T12:27:47.153Z,8.20
2019-05-21T12:30:16.169Z,8.18
2019-05-21T12:32:44.907Z,10.90
2019-05-21T12:35:14.587Z,7.90
2019-05-21T12:37:43.384Z,7.15
2019-05-21T12:40:13.428Z,7.45
2019-05-21T12:42:42.167Z,7.30
2019-05-21T12:45:11.067Z,7.72
2019-05-21T12:47:39.718Z,7.47
2019-05-21T12:50:10.455Z,7.37
2019-05-21T12:52:39.241Z,8.18
2019-05-21T12:55:09.138Z,10.98
2019-05-21T12:57:37.957Z,7.92
2019-05-21T13:00:10.657Z,16.85
2019-05-21T13:02:39.302Z,9.25
2019-05-21T13:05:11.328Z,9.45
2019-05-21T13:07:38.952Z,8.60
2019-05-21T13:10:08.766Z,8.03
2019-05-21T13:12:37.562Z,10.80
2019-05-21T13:15:07.478Z,9.63
2019-05-21T13:17:36.293Z,7.90
2019-05-21T13:20:08.930Z,9.05
2019-05-21T13:22:37.775Z,10.53
2019-05-21T13:25:07.769Z,8.20
2019-05-21T13:27:36.604Z,8.05
2019-05-21T13:30:08.855Z,11.03
2019-05-21T13:32:37.747Z,14.45
2019-05-21T13:35:07.779Z,7.28
2019-05-21T13:37:36.919Z,8.18
2019-05-21T13:40:08.635Z,8.93
2019-05-21T13:42:37.458Z,10.23
2019-05-21T13:45:08.159Z,8.88
2019-05-21T13:47:36.820Z,9.85
2019-05-21T13:50:10.913Z,9.80
2019-05-21T13:52:39.619Z,7.62
2019-05-21T13:55:09.889Z,11.10
2019-05-21T13:57:38.662Z,11.33
2019-05-21T14:00:12.047Z,9.33
2019-05-21T14:05:09.388Z,7.47
2019-05-21T14:07:38.150Z,11.18
2019-05-21T14:10:19.431Z,8.53
2019-05-21T14:12:38.101Z,11.55
2019-05-21T14:15:07.107Z,9.83
2019-05-21T14:17:35.749Z,12.47
2019-05-21T14:20:07.723Z,9.90
2019-05-21T14:22:36.741Z,11.85
2019-05-21T14:25:08.719Z,14.13
2019-05-21T14:27:44.423Z,15.53
2019-05-21T14:30:09.561Z,11.00
2019-05-21T14:32:38.302Z,12.53
2019-05-21T14:35:07.284Z,13.25
2019-05-21T14:37:35.998Z,17.02
2019-05-21T14:40:07.780Z,15.88
2019-05-21T14:42:36.575Z,16.70
2019-05-21T14:45:07.471Z,15.10
2019-05-21T14:47:36.159Z,17.17
2019-05-21T14:50:07.245Z,16.40
2019-05-21T14:52:36.019Z,19.70
2019-05-21T14:55:10.372Z,20.25
2019-05-21T14:57:39.193Z,20.90
2019-05-21T15:00:23.179Z,17.73
2019-05-21T15:02:51.900Z,20.85
2019-05-21T15:05:21.386Z,20.80
2019-05-21T15:07:50.251Z,25.05
2019-05-21T15:10:19.137Z,17.32
2019-05-21T15:12:47.810Z,17.98
2019-05-21T15:15:16.612Z,19.52
2019-05-21T15:17:45.366Z,14.60
2019-05-21T15:20:16.124Z,15.93
2019-05-21T15:22:44.951Z,16.42
2019-05-21T15:25:13.907Z,19.32
2019-05-21T15:27:42.601Z,16.67
2019-05-21T15:30:11.489Z,15.55
2019-05-21T15:32:40.172Z,15.83
2019-05-21T15:35:08.931Z,15.48
2019-05-21T15:37:37.608Z,15.93
2019-05-21T15:40:07.085Z,18.40
2019-05-21T15:42:35.827Z,17.87
2019-05-21T15:45:07.398Z,16.10
2019-05-21T15:47:36.143Z,17.67
2019-05-21T15:50:05.346Z,18.17
2019-05-21T15:52:34.014Z,17.15
2019-05-21T15:55:06.825Z,19.20
2019-05-21T15:57:33.300Z,18.17
2019-05-21T16:00:02.265Z,20.45
2019-05-21T16:02:31.037Z,20.23
2019-05-21T16:04:59.758Z,20.27
2019-05-21T16:07:28.491Z,17.92
2019-05-21T16:09:57.246Z,20.37
2019-05-21T16:12:26.033Z,19.75
2019-05-21T16:14:54.718Z,17.20
2019-05-21T16:17:23.463Z,25.20
2019-05-21T16:19:52.333Z,19.75
2019-05-21T16:22:21.044Z,17.77
2019-05-21T16:24:49.845Z,19.32
2019-05-21T16:27:18.593Z,19.00
2019-05-21T16:29:47.254Z,16.35
2019-05-21T16:32:16.302Z,18.30
2019-05-21T16:34:45.291Z,16.35
2019-05-21T16:37:14.329Z,18.17
2019-05-21T16:39:42.976Z,16.17
2019-05-21T16:42:13.274Z,21.05
2019-05-21T16:44:42.067Z,21.40
2019-05-21T16:47:10.894Z,20.37
2019-05-21T16:49:39.765Z,17.98
2019-05-21T16:52:08.627Z,19.75
2019-05-21T16:54:44.081Z,18.32
2019-05-21T16:57:15.632Z,17.07
2019-05-21T16:59:47.643Z,19.65
2019-05-21T17:02:16.315Z,18.20
2019-05-21T17:04:44.982Z,19.15
2019-05-21T17:07:15.695Z,20.62
2019-05-21T17:09:44.799Z,18.62
2019-05-21T17:12:13.976Z,19.57
2019-05-21T17:14:45.752Z,20.25
2019-05-21T17:17:14.708Z,20.00
2019-05-21T17:19:43.369Z,23.35
2019-05-21T17:22:12.263Z,19.17
2019-05-21T17:24:42.633Z,21.25
2019-05-21T17:27:11.649Z,22.85
2019-05-21T17:29:40.532Z,17.73
2019-05-21T17:32:09.438Z,21.73
2019-05-21T17:34:39.444Z,21.57
2019-05-21T17:37:11.401Z,19.52
2019-05-21T17:39:44.885Z,18.95
2019-05-21T17:42:17.832Z,26.48
2019-05-21T17:44:50.879Z,21.68
2019-05-21T17:47:19.763Z,23.75
2019-05-21T17:49:48.770Z,21.02
2019-05-21T17:52:17.651Z,21.23
2019-05-21T17:54:56.625Z,20.90
2019-05-21T17:58:58.355Z,20.30
2019-05-21T18:00:16.901Z,21.15
2019-05-21T18:02:46.400Z,23.02
2019-05-21T18:05:17.017Z,21.35
2019-05-21T18:07:46.031Z,23.10
2019-05-21T18:10:16.413Z,19.48
2019-05-21T18:12:50.215Z,19.85
2019-05-21T18:17:52.139Z,19.48
2019-05-21T18:20:21.201Z,19.35
2019-05-21T18:22:54.396Z,20.65
2019-05-21T18:25:24.362Z,22.55
2019-05-21T18:27:53.347Z,21.10
2019-05-21T18:30:24.722Z,21.70
2019-05-21T18:32:53.541Z,22.55
2019-05-21T18:35:22.431Z,23.85
2019-05-21T18:37:53.380Z,22.10
2019-05-21T18:40:22.291Z,18.52
2019-05-21T18:42:50.959Z,20.68
2019-05-21T18:45:19.742Z,21.77
2019-05-21T18:47:48.764Z,23.50
2019-05-21T18:50:34.806Z,21.95
2019-05-21T18:52:55.467Z,22.07
2019-05-21T18:55:25.846Z,22.67
2019-05-21T18:57:57.530Z,22.80
2019-05-21T19:00:26.660Z,22.42
2019-05-21T19:02:58.193Z,25.40
2019-05-21T19:05:26.967Z,25.40
2019-05-21T19:07:55.780Z,26.40
2019-05-21T19:10:28.918Z,23.02
2019-05-21T19:13:00.872Z,26.75
2019-05-21T19:15:28.575Z,27.87
2019-05-21T19:17:57.427Z,25.45
2019-05-21T19:20:26.274Z,25.23
2019-05-21T19:23:01.933Z,25.72
2019-05-21T19:25:28.209Z,27.07
2019-05-21T19:27:56.977Z,27.48
2019-05-21T19:30:25.682Z,27.75
2019-05-21T19:32:54.490Z,26.68
2019-05-21T19:35:23.288Z,27.00
2019-05-21T19:37:54.109Z,24.00
2019-05-21T19:40:22.870Z,26.75
2019-05-21T19:42:55.341Z,32.85
2019-05-21T19:45:22.108Z,28.20
2019-05-21T19:47:51.216Z,32.80
2019-05-21T19:50:20.306Z,29.07
2019-05-21T19:52:49.086Z,27.05
2019-05-21T19:55:17.820Z,26.73
2019-05-21T19:57:47.107Z,28.90
2019-05-21T20:00:18.831Z,26.12
2019-05-21T20:02:48.576Z,29.42
2019-05-21T20:05:17.586Z,27.67
2019-05-21T20:07:46.403Z,31.02
2019-05-21T20:10:15.414Z,30.65
2019-05-21T20:12:46.068Z,32.00
2019-05-21T20:15:16.370Z,30.70
2019-05-21T20:17:46.186Z,33.33
2019-05-21T20:20:17.375Z,31.12
2019-05-21T20:22:47.021Z,33.20
2019-05-21T20:25:18.301Z,29.77
2019-05-21T20:27:47.799Z,31.55
2019-05-21T20:30:19.583Z,28.75
2019-05-21T20:32:49.613Z,30.92
2019-05-21T20:35:18.886Z,33.98
2019-05-21T20:37:49.301Z,33.65
2019-05-21T20:40:18.720Z,30.90
2019-05-21T20:42:51.333Z,33.98
2019-05-21T20:45:21.855Z,33.58
2019-05-21T20:47:51.704Z,31.42
2019-05-21T20:50:21.757Z,30.88
2019-05-21T20:52:50.914Z,33.33
2019-05-21T20:55:19.762Z,32.53
2019-05-21T20:57:49.366Z,31.20
2019-05-21T21:00:22.789Z,31.90
2019-05-21T21:02:52.930Z,29.98
2019-05-21T21:05:22.403Z,35.65
2019-05-21T21:07:52.004Z,30.55
2019-05-21T21:10:22.436Z,29.63
2019-05-21T21:12:51.663Z,35.05
2019-05-21T21:15:22.156Z,31.55
2019-05-21T21:17:52.895Z,32.25
2019-05-21T21:20:23.502Z,30.48
2019-05-21T21:22:52.406Z,31.35
2019-05-21T21:25:22.848Z,36.23
2019-05-21T21:27:52.225Z,35.13
2019-05-21T21:30:24.554Z,32.65
2019-05-21T21:32:59.806Z,32.85
2019-05-21T21:35:31.339Z,32.63
2019-05-21T21:38:01.734Z,33.38
2019-05-21T21:40:33.706Z,34.45
2019-05-21T21:43:07.429Z,38.45
2019-05-21T21:45:40.473Z,41.18
2019-05-21T21:48:10.215Z,38.42
2019-05-21T21:50:39.796Z,35.30
2019-05-21T21:53:12.389Z,36.75
2019-05-21T21:55:41.577Z,35.75
2019-05-21T21:58:11.824Z,34.55
2019-05-21T22:00:59.532Z,34.13
2019-05-21T22:03:32.513Z,38.67
2019-05-21T22:06:04.693Z,38.60
2019-05-21T22:08:34.006Z,39.03
2019-05-21T22:11:04.421Z,37.70
2019-05-21T22:13:34.544Z,45.10
2019-05-21T22:16:04.644Z,43.05
2019-05-21T22:18:38.869Z,40.52
2019-05-21T22:21:07.745Z,40.35
2019-05-21T22:23:40.416Z,47.13
2019-05-21T22:26:10.873Z,50.05
2019-05-21T22:28:42.854Z,45.40
2019-05-21T22:31:13.117Z,47.50
2019-05-21T22:33:43.792Z,48.58
2019-05-21T22:36:12.840Z,44.05
2019-05-21T22:38:41.877Z,45.20
2019-05-21T22:41:10.889Z,47.15
2019-05-21T22:43:40.252Z,44.03
2019-05-21T22:46:12.443Z,47.30
2019-05-21T22:48:42.840Z,48.90
2019-05-21T22:51:13.213Z,54.30
2019-05-21T22:53:43.603Z,47.23
2019-05-21T22:56:13.002Z,51.25
2019-05-21T22:58:43.809Z,46.28
2019-05-21T23:01:14.369Z,46.50
2019-05-21T23:03:43.732Z,46.15
2019-05-21T23:06:13.015Z,47.43
2019-05-21T23:08:42.338Z,42.35
2019-05-21T23:11:11.709Z,51.73
2019-05-21T23:13:42.346Z,47.78
2019-05-21T23:16:14.815Z,47.27
2019-05-21T23:18:46.376Z,43.33
2019-05-21T23:21:17.713Z,46.45
2019-05-21T23:23:49.012Z,46.92
2019-05-21T23:26:27.632Z,47.98
2019-05-21T23:29:09.346Z,49.15
2019-05-21T23:31:38.578Z,49.90
2019-05-21T23:34:23.943Z,47.33
2019-05-21T23:36:58.877Z,45.98
2019-05-21T23:39:34.016Z,45.43
2019-05-21T23:42:09.082Z,51.05
2019-05-21T23:44:47.143Z,47.93
2019-05-21T23:47:23.418Z,51.83
2019-05-21T23:49:52.632Z,47.65
2019-05-21T23:52:30.116Z,45.10
2019-05-21T23:57:54.518Z,48.52
